EGHC

Land's End Airport

Land's End, United Kingdom
METAR EGHC 221520Z 01014KT 9999 FEW010 15/12 Q1019
Observed Flight Rules
May-22 @ 15:20 UTC (25 minutes ago) Visual Flight Rules
Wind Visibility Clouds
10° at 14 knots 10,000+ meters
  • Few at 1,000' AGL
Temperatures Readings
Current 15°C / 59°F
Dewpoint 12°C / 54°F
Humidity 82%
Altimeter 30.09" Hg
Pressure 1019 hPa
Elevation 122
METAR EGHC 221520Z 01014KT 9999 FEW010 15/12 Q1019
Observed Flight Rules
May-22 @ 15:20 UTC
(25 minutes ago)
VFR
Wind Visibility
10° at 14 knots 10,000+ meters
Clouds
  • Few at 1,000' AGL
Temperature Dewpoint
15°C / 59°F 12°C / 54°F
Humidity Altimeter Pressure
82% 30.09" Hg 1019 hPa